Ellis, Kansas
Current Conditions -  °F | °C
As of 6:55 AM on Wednesday 26 Nov 2014 (Local Time) from KHYS Reporting Station
Few Clouds Few Clouds  
Wind Chill: 30°   Ceiling: Unl
Heat Index: 39°   Visibility: 10mi
Dew Point: 25°   Wind: 17mph
Humidity: 56%   Direction: 320°NW
Pressure: 30.09"   Gusts: 25mph
Location:  38.94°N, 99.56°W
Report Text: KHYS 261255Z AUTO 32015G22KT 10SM FEW120 04/M04 A3009 RMK AO1
Loading
Personal Weather Stations






























Interactive Weather Map New forecast layout! Learn more

10-Day Weather Forecast

Advertisements
Track Severe Weather on mobile